Bent, New Mexico
Current Conditions -  °F | °C
As of 5:58 AM on Thursday 30 Oct 2014 (Local Time) from KHMN Reporting Station
Clear Clear  
Wind Chill:   Ceiling: Unl
Heat Index:   Visibility: 10mi
Dew Point:   Wind: 3mph
Humidity: 69%   Direction: 100°E
Pressure: 30.18"   Gusts: NA
Location:  33.16°N, 105.86°W
Report Text: KHMN 301158Z AUTO 10003KT 10SM CLR 07/02 A3018 RMK AO2 SLP174 T00700016 10113 20060 53001 $
Loading
Personal Weather Stations






























Interactive Weather Map
Tropical Storm Tracking
New forecast layout! Learn more

10-Day Weather Forecast

Advertisements
Track Severe Weather on mobile